createdAt,value
2019-05-19T00:00:52.754Z,66.64
2019-05-19T00:03:22.349Z,66.43
2019-05-19T00:05:52.256Z,66.46
2019-05-19T00:08:21.773Z,66.32
2019-05-19T00:10:51.254Z,67.04
2019-05-19T00:13:20.730Z,67.12
2019-05-19T00:15:50.221Z,67.18
2019-05-19T00:18:19.745Z,67.04
2019-05-19T00:20:49.234Z,66.74
2019-05-19T00:23:18.768Z,66.89
2019-05-19T00:25:48.272Z,66.64
2019-05-19T00:28:17.807Z,67.13
2019-05-19T00:30:47.337Z,67.23
2019-05-19T00:33:16.853Z,66.89
2019-05-19T00:35:46.371Z,66.84
2019-05-19T00:38:15.826Z,66.64
2019-05-19T00:40:45.386Z,67.06
2019-05-19T00:43:14.911Z,67.04
2019-05-19T00:45:44.554Z,66.49
2019-05-19T00:48:14.013Z,66.53
2019-05-19T00:50:43.909Z,66.30
2019-05-19T00:53:13.455Z,66.59
2019-05-19T00:55:43.217Z,66.49
2019-05-19T00:58:14.250Z,66.07
2019-05-19T01:00:43.795Z,66.04
2019-05-19T01:03:13.375Z,66.44
2019-05-19T01:05:42.847Z,65.91
2019-05-19T01:08:12.373Z,65.62
2019-05-19T01:10:41.855Z,65.94
2019-05-19T01:13:11.351Z,65.83
2019-05-19T01:15:40.942Z,65.63
2019-05-19T01:18:10.442Z,65.81
2019-05-19T01:20:40.059Z,65.85
2019-05-19T01:23:09.548Z,65.63
2019-05-19T01:25:39.023Z,65.62
2019-05-19T01:28:08.656Z,65.76
2019-05-19T01:30:38.288Z,66.21
2019-05-19T01:33:07.778Z,65.48
2019-05-19T01:35:37.355Z,65.47
2019-05-19T01:38:06.907Z,65.79
2019-05-19T01:40:36.443Z,65.91
2019-05-19T01:43:06.038Z,65.91
2019-05-19T01:45:35.532Z,66.09
2019-05-19T01:48:05.099Z,65.76
2019-05-19T01:50:34.743Z,66.31
2019-05-19T01:53:04.202Z,66.17
2019-05-19T01:55:33.918Z,66.34
2019-05-19T01:58:22.762Z,66.69
2019-05-19T02:00:52.236Z,66.75
2019-05-19T02:03:21.719Z,66.53
2019-05-19T02:05:51.285Z,66.90
2019-05-19T02:08:20.824Z,66.40
2019-05-19T02:10:50.297Z,66.75
2019-05-19T02:13:19.757Z,66.54
2019-05-19T02:15:49.401Z,67.01
2019-05-19T02:18:18.857Z,67.03
2019-05-19T02:20:48.339Z,66.77
2019-05-19T02:23:17.841Z,66.76
2019-05-19T02:25:47.360Z,66.84
2019-05-19T02:28:16.864Z,66.99
2019-05-19T02:30:46.320Z,66.80
2019-05-19T02:33:15.803Z,66.66
2019-05-19T02:35:45.309Z,66.93
2019-05-19T02:38:14.762Z,66.99
2019-05-19T02:40:49.008Z,67.14
2019-05-19T02:43:19.269Z,66.98
2019-05-19T02:45:51.041Z,67.54
2019-05-19T02:48:21.069Z,67.98
2019-05-19T02:50:53.052Z,68.51
2019-05-19T02:53:23.783Z,67.50
2019-05-19T02:55:54.777Z,67.34
2019-05-19T02:58:24.899Z,66.92
2019-05-19T03:00:54.512Z,67.18
2019-05-19T03:03:23.997Z,67.75
2019-05-19T03:05:53.481Z,67.39
2019-05-19T03:08:22.956Z,67.51
2019-05-19T03:10:52.487Z,67.93
2019-05-19T03:13:21.993Z,67.45
2019-05-19T03:15:51.513Z,67.65
2019-05-19T03:18:20.970Z,67.49
2019-05-19T03:20:50.439Z,68.14
2019-05-19T03:23:20.009Z,68.15
2019-05-19T03:25:49.477Z,67.83
2019-05-19T03:28:19.039Z,67.80
2019-05-19T03:31:06.635Z,67.47
2019-05-19T03:33:43.817Z,67.54
2019-05-19T03:36:13.298Z,67.64
2019-05-19T03:38:42.740Z,67.79
2019-05-19T03:41:12.288Z,67.90
2019-05-19T03:43:41.747Z,67.96
2019-05-19T03:46:11.251Z,67.72
2019-05-19T03:48:40.710Z,68.24
2019-05-19T03:51:28.710Z,68.70
2019-05-19T03:53:41.424Z,68.68
2019-05-19T03:56:10.874Z,68.67
2019-05-19T03:58:40.365Z,68.19
2019-05-19T04:01:09.823Z,68.28
2019-05-19T04:03:39.316Z,68.56
2019-05-19T04:06:08.782Z,68.34
2019-05-19T04:08:38.279Z,68.14
2019-05-19T04:11:07.898Z,68.01
2019-05-19T04:13:37.383Z,68.59
2019-05-19T04:16:06.878Z,68.53
2019-05-19T04:18:36.367Z,68.47
2019-05-19T04:21:05.905Z,68.37
2019-05-19T04:23:35.395Z,68.43
2019-05-19T04:26:04.918Z,68.59
2019-05-19T04:28:34.425Z,68.67
2019-05-19T04:31:03.921Z,68.79
2019-05-19T04:33:33.396Z,68.71
2019-05-19T04:36:02.860Z,68.37
2019-05-19T04:38:32.349Z,68.22
2019-05-19T04:41:01.845Z,68.14
2019-05-19T04:43:31.329Z,68.22
2019-05-19T04:46:00.824Z,68.30
2019-05-19T04:48:30.326Z,68.34
2019-05-19T04:50:59.778Z,68.03
2019-05-19T04:53:29.273Z,68.62
2019-05-19T04:55:58.767Z,68.44
2019-05-19T04:58:28.220Z,68.45
2019-05-19T05:00:57.710Z,68.78
2019-05-19T05:03:27.215Z,68.63
2019-05-19T05:05:56.685Z,68.83
2019-05-19T05:08:30.364Z,68.88
2019-05-19T05:10:57.468Z,68.93
2019-05-19T05:13:26.963Z,68.94
2019-05-19T05:15:56.422Z,68.90
2019-05-19T05:18:25.916Z,69.02
2019-05-19T05:20:55.396Z,69.28
2019-05-19T05:23:24.953Z,69.62
2019-05-19T05:25:54.414Z,69.31
2019-05-19T05:28:23.956Z,69.23
2019-05-19T05:30:53.413Z,69.13
2019-05-19T05:33:22.875Z,69.00
2019-05-19T05:35:52.371Z,69.18
2019-05-19T05:38:21.823Z,69.23
2019-05-19T05:40:51.303Z,69.26
2019-05-19T05:43:20.878Z,69.13
2019-05-19T05:45:50.353Z,69.12
2019-05-19T05:48:19.840Z,69.14
2019-05-19T05:50:49.387Z,69.30
2019-05-19T05:53:18.919Z,69.38
2019-05-19T05:55:48.492Z,69.37
2019-05-19T05:58:17.948Z,69.49
2019-05-19T06:00:47.975Z,70.18
2019-05-19T06:03:17.530Z,70.28
2019-05-19T06:05:47.072Z,70.30
2019-05-19T06:08:16.568Z,71.11
2019-05-19T06:10:46.028Z,70.98
2019-05-19T06:13:15.493Z,71.40
2019-05-19T06:15:44.992Z,71.31
2019-05-19T06:18:14.481Z,70.95
2019-05-19T06:20:43.954Z,71.49
2019-05-19T06:23:13.439Z,70.60
2019-05-19T06:25:43.018Z,70.37
2019-05-19T06:28:12.483Z,70.16
2019-05-19T06:30:42.328Z,69.96
2019-05-19T06:33:11.884Z,69.06
2019-05-19T06:35:41.354Z,68.19
2019-05-19T06:38:10.916Z,68.27
2019-05-19T06:40:40.438Z,68.71
2019-05-19T06:43:09.903Z,68.88
2019-05-19T06:45:39.363Z,68.64
2019-05-19T06:48:08.878Z,68.24
2019-05-19T06:50:40.838Z,67.69
2019-05-19T06:53:14.074Z,67.35
2019-05-19T06:55:40.797Z,66.75
2019-05-19T06:58:10.308Z,66.33
2019-05-19T07:00:39.858Z,66.28
2019-05-19T07:03:09.368Z,65.58
2019-05-19T07:05:38.865Z,65.34
2019-05-19T07:08:08.435Z,65.90
2019-05-19T07:10:37.978Z,66.55
2019-05-19T07:13:07.484Z,65.67
2019-05-19T07:15:36.951Z,65.38
2019-05-19T07:18:06.538Z,65.73
2019-05-19T07:20:36.000Z,65.87
2019-05-19T07:23:05.761Z,65.22
2019-05-19T07:25:35.225Z,65.05
2019-05-19T07:28:04.781Z,64.31
2019-05-19T07:30:34.328Z,63.51
2019-05-19T07:33:03.905Z,62.47
2019-05-19T07:35:33.377Z,63.17
2019-05-19T07:38:02.851Z,62.64
2019-05-19T07:40:32.364Z,62.78
2019-05-19T07:43:01.875Z,61.58
2019-05-19T07:45:31.369Z,59.75
2019-05-19T07:48:00.977Z,60.23
2019-05-19T07:50:30.514Z,60.44
2019-05-19T07:53:00.013Z,60.62
2019-05-19T07:55:29.584Z,59.78
2019-05-19T07:57:59.154Z,59.96
2019-05-19T08:00:28.615Z,58.69
2019-05-19T08:02:58.113Z,58.79
2019-05-19T08:05:27.671Z,57.72
2019-05-19T08:07:57.197Z,58.31
2019-05-19T08:10:26.665Z,57.08
2019-05-19T08:12:56.306Z,57.39
2019-05-19T08:15:25.831Z,57.45
2019-05-19T08:17:55.314Z,55.71
2019-05-19T08:20:24.877Z,54.86
2019-05-19T08:22:54.374Z,55.01
2019-05-19T08:25:23.859Z,56.32
2019-05-19T08:27:53.404Z,55.41
2019-05-19T08:30:23.008Z,55.29
2019-05-19T08:32:52.654Z,55.80
2019-05-19T08:35:22.161Z,55.29
2019-05-19T08:37:51.678Z,54.76
2019-05-19T08:40:21.297Z,53.26
2019-05-19T08:42:50.789Z,52.68
2019-05-19T08:45:20.343Z,52.96
2019-05-19T08:47:52.949Z,54.06
2019-05-19T08:50:22.512Z,54.36
2019-05-19T08:52:52.010Z,53.63
2019-05-19T08:55:21.479Z,53.04
2019-05-19T08:57:51.074Z,52.42
2019-05-19T09:00:20.692Z,53.57
2019-05-19T09:02:50.277Z,52.98
2019-05-19T09:05:19.826Z,54.33
2019-05-19T09:07:49.340Z,53.98
2019-05-19T09:10:20.615Z,53.84
2019-05-19T09:12:50.088Z,53.58
2019-05-19T09:15:19.582Z,53.24
2019-05-19T09:17:49.045Z,52.77
2019-05-19T09:21:01.014Z,54.01
2019-05-19T09:23:30.595Z,53.64
2019-05-19T09:26:00.137Z,52.18
2019-05-19T09:28:29.624Z,52.78
2019-05-19T09:30:59.150Z,52.10
2019-05-19T09:33:28.631Z,53.26
2019-05-19T09:35:58.121Z,52.35
2019-05-19T09:38:27.624Z,51.82
2019-05-19T09:40:57.167Z,52.10
2019-05-19T09:43:26.689Z,51.24
2019-05-19T09:45:56.246Z,50.59
2019-05-19T09:48:25.849Z,51.42
2019-05-19T09:50:55.334Z,48.91
2019-05-19T09:53:24.900Z,50.06
2019-05-19T09:55:54.544Z,50.43
2019-05-19T09:58:24.029Z,50.42
2019-05-19T10:00:53.586Z,47.02
2019-05-19T10:03:23.101Z,46.92
2019-05-19T10:05:52.605Z,47.45
2019-05-19T10:08:26.355Z,48.21
2019-05-19T10:11:00.669Z,47.87
2019-05-19T10:13:30.188Z,48.30
2019-05-19T10:15:59.743Z,48.02
2019-05-19T10:18:29.289Z,45.66
2019-05-19T10:20:58.912Z,43.91
2019-05-19T10:23:28.464Z,44.96
2019-05-19T10:25:57.959Z,44.09
2019-05-19T10:28:27.521Z,46.21
2019-05-19T10:30:57.027Z,45.48
2019-05-19T10:33:26.492Z,43.48
2019-05-19T10:35:56.460Z,43.55
2019-05-19T10:38:25.939Z,42.71
2019-05-19T10:40:55.436Z,44.84
2019-05-19T10:43:24.988Z,43.67
2019-05-19T10:46:00.001Z,45.29
2019-05-19T10:48:29.623Z,41.95
2019-05-19T10:50:59.115Z,42.71
2019-05-19T10:53:28.655Z,41.73
2019-05-19T10:55:58.227Z,42.68
2019-05-19T10:58:27.692Z,41.14
2019-05-19T11:00:57.240Z,41.52
2019-05-19T11:03:26.865Z,42.65
2019-05-19T11:05:56.376Z,40.54
2019-05-19T11:08:25.830Z,39.77
2019-05-19T11:10:55.345Z,41.67
2019-05-19T11:13:24.879Z,41.45
2019-05-19T11:15:54.551Z,38.29
2019-05-19T11:18:24.086Z,38.58
2019-05-19T11:20:53.642Z,39.38
2019-05-19T11:23:23.114Z,39.43
2019-05-19T11:25:52.697Z,39.18
2019-05-19T11:28:22.241Z,38.94
2019-05-19T11:30:51.761Z,36.75
2019-05-19T11:33:21.232Z,39.35
2019-05-19T11:35:50.806Z,37.00
2019-05-19T11:38:20.371Z,39.40
2019-05-19T11:40:49.884Z,39.22
2019-05-19T11:43:19.463Z,40.37
2019-05-19T11:45:49.586Z,39.90
2019-05-19T11:48:19.112Z,36.22
2019-05-19T11:50:48.599Z,37.26
2019-05-19T11:53:18.061Z,37.48
2019-05-19T11:55:47.643Z,36.18
2019-05-19T11:58:17.392Z,35.75
2019-05-19T12:00:46.970Z,35.87
2019-05-19T12:03:16.509Z,36.52
2019-05-19T12:05:46.019Z,36.56
2019-05-19T12:08:15.486Z,36.79
2019-05-19T12:10:45.173Z,35.81
2019-05-19T12:13:14.767Z,37.71
2019-05-19T12:15:44.294Z,35.06
2019-05-19T12:18:13.873Z,35.24
2019-05-19T12:20:43.321Z,35.75
2019-05-19T12:23:12.798Z,34.94
2019-05-19T12:25:42.277Z,35.41
2019-05-19T12:28:11.764Z,34.58
2019-05-19T12:30:41.237Z,34.43
2019-05-19T12:33:10.740Z,34.55
2019-05-19T12:35:40.282Z,33.39
2019-05-19T12:38:09.867Z,35.95
2019-05-19T12:40:39.500Z,32.54
2019-05-19T12:43:09.017Z,33.66
2019-05-19T12:45:38.699Z,34.83
2019-05-19T12:48:08.307Z,34.01
2019-05-19T12:50:37.859Z,33.51
2019-05-19T12:53:07.480Z,33.91
2019-05-19T12:55:37.034Z,34.96
2019-05-19T12:58:06.526Z,36.37
2019-05-19T13:00:36.048Z,38.16
2019-05-19T13:03:05.668Z,35.72
2019-05-19T13:05:35.234Z,38.17
2019-05-19T13:08:04.710Z,37.03
2019-05-19T13:10:34.221Z,37.88
2019-05-19T13:13:03.705Z,39.82
2019-05-19T13:15:33.149Z,40.76
2019-05-19T13:18:02.662Z,41.73
2019-05-19T13:20:32.124Z,42.55
2019-05-19T13:23:01.616Z,44.00
2019-05-19T13:25:31.280Z,44.27
2019-05-19T13:28:00.813Z,45.25
2019-05-19T13:30:30.306Z,46.52
2019-05-19T13:32:59.818Z,49.09
2019-05-19T13:35:29.314Z,50.24
2019-05-19T13:37:58.838Z,52.62
2019-05-19T13:40:28.273Z,53.58
2019-05-19T13:42:57.759Z,53.94
2019-05-19T13:45:27.402Z,54.96
2019-05-19T13:48:16.364Z,56.68
2019-05-19T13:50:45.890Z,58.04
2019-05-19T13:53:15.416Z,58.37
2019-05-19T13:55:44.930Z,59.30
2019-05-19T13:58:14.379Z,60.00
2019-05-19T14:00:43.962Z,60.92
2019-05-19T14:03:13.541Z,61.86
2019-05-19T14:05:43.032Z,62.45
2019-05-19T14:08:12.492Z,62.80
2019-05-19T14:10:42.489Z,63.20
2019-05-19T14:13:12.042Z,63.59
2019-05-19T14:15:42.878Z,63.50
2019-05-19T14:18:12.372Z,63.53
2019-05-19T14:20:41.887Z,64.19
2019-05-19T14:23:11.367Z,64.44
2019-05-19T14:25:40.853Z,63.62
2019-05-19T14:28:10.308Z,63.71
2019-05-19T14:30:39.874Z,63.85
2019-05-19T14:33:09.515Z,64.81
2019-05-19T14:35:39.058Z,63.71
2019-05-19T14:38:08.626Z,63.43
2019-05-19T14:40:38.266Z,63.46
2019-05-19T14:43:07.751Z,63.58
2019-05-19T14:45:37.418Z,63.92
2019-05-19T14:48:06.934Z,62.21
2019-05-19T14:50:36.491Z,62.93
2019-05-19T14:53:06.093Z,62.77
2019-05-19T14:55:35.643Z,62.01
2019-05-19T14:58:05.221Z,63.00
2019-05-19T15:00:34.791Z,62.34
2019-05-19T15:03:04.375Z,62.34
2019-05-19T15:05:34.486Z,62.09
2019-05-19T15:08:04.061Z,61.58
2019-05-19T15:10:33.527Z,61.93
2019-05-19T15:13:03.049Z,61.63
2019-05-19T15:15:32.606Z,62.90
2019-05-19T15:18:02.246Z,63.37
2019-05-19T15:20:31.793Z,62.83
2019-05-19T15:23:01.315Z,62.21
2019-05-19T15:25:30.786Z,63.24
2019-05-19T15:28:04.547Z,63.72
2019-05-19T15:30:31.496Z,63.00
2019-05-19T15:33:01.074Z,62.79
2019-05-19T15:35:30.630Z,62.45
2019-05-19T15:38:00.283Z,63.02
2019-05-19T15:40:29.852Z,62.48
2019-05-19T15:42:59.371Z,62.68
2019-05-19T15:45:28.838Z,62.59
2019-05-19T15:47:58.568Z,64.00
2019-05-19T15:50:28.045Z,64.04
2019-05-19T15:52:57.540Z,62.88
2019-05-19T15:55:27.120Z,62.29
2019-05-19T15:57:56.758Z,62.97
2019-05-19T16:00:26.427Z,63.08
2019-05-19T16:02:55.885Z,63.97
2019-05-19T16:05:25.535Z,64.62
2019-05-19T16:07:55.135Z,64.87
2019-05-19T16:10:24.872Z,65.22
2019-05-19T16:12:54.358Z,64.82
2019-05-19T16:15:23.903Z,64.99
2019-05-19T16:17:53.483Z,65.33
2019-05-19T16:20:23.075Z,65.04
2019-05-19T16:22:52.672Z,64.48
2019-05-19T16:25:22.219Z,64.06
2019-05-19T16:27:51.680Z,64.02
2019-05-19T16:30:22.240Z,64.90
2019-05-19T16:32:51.795Z,65.22
2019-05-19T16:35:21.320Z,65.15
2019-05-19T16:37:50.836Z,65.07
2019-05-19T16:40:20.839Z,64.99
2019-05-19T16:42:50.345Z,64.99
2019-05-19T16:45:21.163Z,65.69
2019-05-19T16:47:50.623Z,65.37
2019-05-19T16:50:20.371Z,65.39
2019-05-19T16:52:49.847Z,64.50
2019-05-19T16:55:29.971Z,64.22
2019-05-19T16:57:59.441Z,63.75
2019-05-19T17:00:29.887Z,63.79
2019-05-19T17:02:59.447Z,64.82
2019-05-19T17:05:28.913Z,64.56
2019-05-19T17:07:58.560Z,64.93
2019-05-19T17:10:27.999Z,64.61
2019-05-19T17:12:57.535Z,64.50
2019-05-19T17:15:27.136Z,64.36
2019-05-19T17:17:56.697Z,64.00
2019-05-19T17:20:26.370Z,63.37
2019-05-19T17:22:56.007Z,63.25
2019-05-19T17:25:25.583Z,62.82
2019-05-19T17:27:55.118Z,62.58
2019-05-19T17:30:25.347Z,61.99
2019-05-19T17:32:54.832Z,61.72
2019-05-19T17:35:24.422Z,61.16
2019-05-19T17:37:53.905Z,60.69
2019-05-19T17:40:23.827Z,60.15
2019-05-19T17:42:53.404Z,58.49
2019-05-19T17:45:23.229Z,57.43
2019-05-19T17:47:53.716Z,56.13
2019-05-19T17:50:35.687Z,55.06
2019-05-19T17:53:05.723Z,53.81
2019-05-19T17:55:35.835Z,53.02
2019-05-19T17:58:05.939Z,52.58
2019-05-19T18:00:38.778Z,52.77
2019-05-19T18:03:08.794Z,52.86
2019-05-19T18:05:38.566Z,53.44
2019-05-19T18:08:08.175Z,54.01
2019-05-19T18:10:37.826Z,54.57
2019-05-19T18:13:07.449Z,55.47
2019-05-19T18:15:37.825Z,56.12
2019-05-19T18:18:07.383Z,56.59
2019-05-19T18:20:36.920Z,57.58
2019-05-19T18:23:06.433Z,57.47
2019-05-19T18:25:36.013Z,58.41
2019-05-19T18:28:05.501Z,58.43
2019-05-19T18:30:35.092Z,58.63
2019-05-19T18:33:23.977Z,58.90
2019-05-19T18:35:53.457Z,59.14
2019-05-19T18:38:23.029Z,59.58
2019-05-19T18:40:52.579Z,60.02
2019-05-19T18:43:22.268Z,60.22
2019-05-19T18:45:51.825Z,60.63
2019-05-19T18:48:23.295Z,60.56
2019-05-19T18:50:52.650Z,60.80
2019-05-19T18:53:22.186Z,60.86
2019-05-19T18:55:51.737Z,61.09
2019-05-19T18:58:21.288Z,61.43
2019-05-19T19:00:50.754Z,61.27
2019-05-19T19:03:20.408Z,61.64
2019-05-19T19:05:50.027Z,61.98
2019-05-19T19:08:19.593Z,62.11
2019-05-19T19:10:49.149Z,62.23
2019-05-19T19:13:18.733Z,62.69
2019-05-19T19:15:48.287Z,62.73
2019-05-19T19:18:17.819Z,62.98
2019-05-19T19:20:47.306Z,63.74
2019-05-19T19:23:16.809Z,63.63
2019-05-19T19:25:46.403Z,64.19
2019-05-19T19:28:15.895Z,64.27
2019-05-19T19:30:45.572Z,64.80
2019-05-19T19:33:15.126Z,65.21
2019-05-19T19:35:44.698Z,64.63
2019-05-19T19:38:14.225Z,64.90
2019-05-19T19:40:43.773Z,65.01
2019-05-19T19:43:13.356Z,65.17
2019-05-19T19:45:42.891Z,64.85
2019-05-19T19:48:12.394Z,65.15
2019-05-19T19:50:41.961Z,65.93
2019-05-19T19:53:11.534Z,65.71
2019-05-19T19:55:41.274Z,65.78
2019-05-19T19:58:10.806Z,65.83
2019-05-19T20:00:43.614Z,66.17
2019-05-19T20:03:13.368Z,66.47
2019-05-19T20:05:43.006Z,66.78
2019-05-19T20:08:12.572Z,66.49
2019-05-19T20:10:42.079Z,66.65
2019-05-19T20:13:11.567Z,66.50
2019-05-19T20:15:41.075Z,66.73
2019-05-19T20:18:10.688Z,66.71
2019-05-19T20:20:40.321Z,66.93
2019-05-19T20:23:09.835Z,66.71
2019-05-19T20:25:39.377Z,67.12
2019-05-19T20:28:08.950Z,67.13
2019-05-19T20:30:38.628Z,67.29
2019-05-19T20:33:08.319Z,67.29
2019-05-19T20:35:37.879Z,66.80
2019-05-19T20:38:07.432Z,66.84
2019-05-19T20:40:36.992Z,66.56
2019-05-19T20:43:06.489Z,66.87
2019-05-19T20:45:36.062Z,66.81
2019-05-19T20:48:05.749Z,66.99
2019-05-19T20:50:35.256Z,66.98
2019-05-19T20:53:04.813Z,66.57
2019-05-19T20:55:34.310Z,66.64
2019-05-19T20:58:03.790Z,66.59
2019-05-19T21:00:33.560Z,66.31
2019-05-19T21:03:03.050Z,66.27
2019-05-19T21:05:32.648Z,66.33
2019-05-19T21:08:02.138Z,66.89
2019-05-19T21:10:31.647Z,66.23
2019-05-19T21:13:01.139Z,66.05
2019-05-19T21:15:30.630Z,66.16
2019-05-19T21:18:00.113Z,66.57
2019-05-19T21:20:29.609Z,66.67
2019-05-19T21:22:59.304Z,66.56
2019-05-19T21:25:28.927Z,66.51
2019-05-19T21:27:58.422Z,66.18
2019-05-19T21:30:27.934Z,66.76
2019-05-19T21:32:57.475Z,67.05
2019-05-19T21:35:27.056Z,66.26
2019-05-19T21:37:56.557Z,66.71
2019-05-19T21:40:26.135Z,66.54
2019-05-19T21:42:55.689Z,66.40
2019-05-19T21:45:25.203Z,66.49
2019-05-19T21:47:54.711Z,66.45
2019-05-19T21:50:24.189Z,66.49
2019-05-19T21:52:53.680Z,66.99
2019-05-19T21:55:23.185Z,67.15
2019-05-19T21:57:52.643Z,67.42
2019-05-19T22:00:24.219Z,67.32
2019-05-19T22:02:53.793Z,66.81
2019-05-19T22:05:23.410Z,66.71
2019-05-19T22:08:03.050Z,66.67
2019-05-19T22:10:32.916Z,66.55
2019-05-19T22:13:02.375Z,67.07
2019-05-19T22:15:31.939Z,67.53
2019-05-19T22:18:01.388Z,67.16
2019-05-19T22:20:30.869Z,67.44
2019-05-19T22:23:00.335Z,67.65
2019-05-19T22:25:29.862Z,67.63
2019-05-19T22:27:59.367Z,67.11
2019-05-19T22:30:29.104Z,67.65
2019-05-19T22:32:58.602Z,68.19
2019-05-19T22:35:28.223Z,67.92
2019-05-19T22:37:57.693Z,67.84
2019-05-19T22:40:27.300Z,67.58
2019-05-19T22:42:56.803Z,67.47
2019-05-19T22:45:26.357Z,67.72
2019-05-19T22:47:55.839Z,68.03
2019-05-19T22:50:25.354Z,68.46
2019-05-19T22:52:55.183Z,68.87
2019-05-19T22:55:24.655Z,68.16
2019-05-19T22:57:54.139Z,68.17
2019-05-19T23:00:23.907Z,68.08
2019-05-19T23:02:53.399Z,67.66
2019-05-19T23:05:22.945Z,67.78
2019-05-19T23:07:52.491Z,67.86
2019-05-19T23:10:23.733Z,67.64
2019-05-19T23:12:53.219Z,67.56
2019-05-19T23:15:22.926Z,68.24
2019-05-19T23:17:52.382Z,68.10
2019-05-19T23:20:21.872Z,68.02
2019-05-19T23:22:51.400Z,68.47
2019-05-19T23:25:20.947Z,68.04
2019-05-19T23:27:50.514Z,67.91
2019-05-19T23:30:20.336Z,67.89
2019-05-19T23:32:49.819Z,68.20
2019-05-19T23:35:19.311Z,68.03
2019-05-19T23:37:49.236Z,68.39
2019-05-19T23:40:18.809Z,68.27
2019-05-19T23:42:48.290Z,68.35
2019-05-19T23:45:17.901Z,68.79
2019-05-19T23:47:47.371Z,68.42
2019-05-19T23:50:17.004Z,68.33
2019-05-19T23:52:46.517Z,68.25
2019-05-19T23:55:35.316Z,68.19
2019-05-19T23:58:04.900Z,68.25
